sensor_id;sensor_type;location;lat;lon;timestamp;P1;durP1;ratioP1;P2;durP2;ratioP2
48034;SDS011;33812;46.480;6.834;2022-09-21T00:02:27;2.80;;;0.60;;
48034;SDS011;33812;46.480;6.834;2022-09-21T00:06:30;1.60;;;0.75;;
48034;SDS011;33812;46.480;6.834;2022-09-21T00:10:34;1.40;;;0.60;;
48034;SDS011;33812;46.480;6.834;2022-09-21T00:14:36;1.38;;;0.70;;
48034;SDS011;33812;46.480;6.834;2022-09-21T00:18:38;3.55;;;1.08;;
48034;SDS011;33812;46.480;6.834;2022-09-21T00:22:40;6.43;;;0.93;;
48034;SDS011;33812;46.480;6.834;2022-09-21T00:26:43;2.58;;;0.77;;
48034;SDS011;33812;46.480;6.834;2022-09-21T00:30:45;2.70;;;0.85;;
48034;SDS011;33812;46.480;6.834;2022-09-21T00:34:50;7.43;;;1.15;;
48034;SDS011;33812;46.480;6.834;2022-09-21T00:38:53;3.13;;;0.90;;
48034;SDS011;33812;46.480;6.834;2022-09-21T00:43:10;3.67;;;0.88;;
48034;SDS011;33812;46.480;6.834;2022-09-21T00:47:14;2.40;;;0.85;;
48034;SDS011;33812;46.480;6.834;2022-09-21T00:51:18;3.03;;;0.73;;
48034;SDS011;33812;46.480;6.834;2022-09-21T00:55:22;2.47;;;0.82;;
48034;SDS011;33812;46.480;6.834;2022-09-21T00:59:31;1.85;;;0.65;;
48034;SDS011;33812;46.480;6.834;2022-09-21T01:03:35;3.10;;;0.88;;
48034;SDS011;33812;46.480;6.834;2022-09-21T01:07:39;7.22;;;1.40;;
48034;SDS011;33812;46.480;6.834;2022-09-21T01:11:46;1.02;;;0.60;;
48034;SDS011;33812;46.480;6.834;2022-09-21T01:15:59;3.25;;;1.10;;
48034;SDS011;33812;46.480;6.834;2022-09-21T01:25:05;3.15;;;1.15;;
48034;SDS011;33812;46.480;6.834;2022-09-21T01:29:17;2.03;;;0.70;;
48034;SDS011;33812;46.480;6.834;2022-09-21T01:33:23;1.85;;;0.60;;
48034;SDS011;33812;46.480;6.834;2022-09-21T01:37:30;1.48;;;0.90;;
48034;SDS011;33812;46.480;6.834;2022-09-21T01:41:36;2.58;;;0.80;;
48034;SDS011;33812;46.480;6.834;2022-09-21T01:45:43;4.70;;;1.05;;
48034;SDS011;33812;46.480;6.834;2022-09-21T01:49:49;2.78;;;0.73;;
48034;SDS011;33812;46.480;6.834;2022-09-21T01:53:55;2.38;;;0.75;;
48034;SDS011;33812;46.480;6.834;2022-09-21T01:58:03;2.97;;;1.00;;
48034;SDS011;33812;46.480;6.834;2022-09-21T02:02:12;5.28;;;1.20;;
48034;SDS011;33812;46.480;6.834;2022-09-21T02:06:18;3.15;;;1.00;;
48034;SDS011;33812;46.480;6.834;2022-09-21T02:10:21;2.47;;;0.77;;
48034;SDS011;33812;46.480;6.834;2022-09-21T02:14:27;5.13;;;1.35;;
48034;SDS011;33812;46.480;6.834;2022-09-21T02:22:46;4.85;;;1.15;;
48034;SDS011;33812;46.480;6.834;2022-09-21T02:27:02;3.00;;;1.10;;
48034;SDS011;33812;46.480;6.834;2022-09-21T02:31:08;3.47;;;1.00;;
48034;SDS011;33812;46.480;6.834;2022-09-21T02:35:17;2.47;;;1.10;;
48034;SDS011;33812;46.480;6.834;2022-09-21T02:39:31;2.08;;;0.90;;
48034;SDS011;33812;46.480;6.834;2022-09-21T02:43:36;4.65;;;1.52;;
48034;SDS011;33812;46.480;6.834;2022-09-21T02:47:43;6.15;;;1.50;;
48034;SDS011;33812;46.480;6.834;2022-09-21T02:51:51;5.45;;;1.25;;
48034;SDS011;33812;46.480;6.834;2022-09-21T02:55:58;3.45;;;1.20;;
48034;SDS011;33812;46.480;6.834;2022-09-21T03:00:03;3.22;;;1.00;;
48034;SDS011;33812;46.480;6.834;2022-09-21T03:04:05;5.65;;;1.40;;
48034;SDS011;33812;46.480;6.834;2022-09-21T03:08:09;2.97;;;0.90;;
48034;SDS011;33812;46.480;6.834;2022-09-21T03:12:11;2.03;;;0.70;;
48034;SDS011;33812;46.480;6.834;2022-09-21T03:16:13;2.40;;;0.88;;
48034;SDS011;33812;46.480;6.834;2022-09-21T03:20:15;5.25;;;1.13;;
48034;SDS011;33812;46.480;6.834;2022-09-21T03:24:18;2.25;;;1.15;;
48034;SDS011;33812;46.480;6.834;2022-09-21T03:28:40;3.47;;;0.95;;
48034;SDS011;33812;46.480;6.834;2022-09-21T03:32:42;3.03;;;1.15;;
48034;SDS011;33812;46.480;6.834;2022-09-21T03:36:43;2.25;;;0.70;;
48034;SDS011;33812;46.480;6.834;2022-09-21T03:40:47;1.85;;;0.90;;
48034;SDS011;33812;46.480;6.834;2022-09-21T03:44:49;4.90;;;1.00;;
48034;SDS011;33812;46.480;6.834;2022-09-21T03:48:51;1.67;;;0.57;;
48034;SDS011;33812;46.480;6.834;2022-09-21T03:52:54;2.50;;;0.93;;
48034;SDS011;33812;46.480;6.834;2022-09-21T03:56:58;2.25;;;0.73;;
48034;SDS011;33812;46.480;6.834;2022-09-21T04:01:00;3.30;;;0.65;;
48034;SDS011;33812;46.480;6.834;2022-09-21T04:05:03;2.20;;;1.10;;
48034;SDS011;33812;46.480;6.834;2022-09-21T04:09:06;2.58;;;0.70;;
48034;SDS011;33812;46.480;6.834;2022-09-21T04:13:09;3.42;;;0.82;;
48034;SDS011;33812;46.480;6.834;2022-09-21T04:17:11;2.38;;;0.68;;
48034;SDS011;33812;46.480;6.834;2022-09-21T04:21:13;2.50;;;1.00;;
48034;SDS011;33812;46.480;6.834;2022-09-21T04:25:15;2.30;;;0.93;;
48034;SDS011;33812;46.480;6.834;2022-09-21T04:29:18;2.33;;;0.80;;
48034;SDS011;33812;46.480;6.834;2022-09-21T04:33:20;3.47;;;1.15;;
48034;SDS011;33812;46.480;6.834;2022-09-21T04:37:23;2.15;;;0.90;;
48034;SDS011;33812;46.480;6.834;2022-09-21T04:41:24;12.05;;;1.08;;
48034;SDS011;33812;46.480;6.834;2022-09-21T04:45:28;5.45;;;1.23;;
48034;SDS011;33812;46.480;6.834;2022-09-21T04:49:30;5.78;;;0.80;;
48034;SDS011;33812;46.480;6.834;2022-09-21T04:53:32;9.13;;;0.70;;
48034;SDS011;33812;46.480;6.834;2022-09-21T04:57:34;11.85;;;0.82;;
48034;SDS011;33812;46.480;6.834;2022-09-21T05:01:37;14.07;;;1.80;;
48034;SDS011;33812;46.480;6.834;2022-09-21T05:05:45;5.78;;;0.98;;
48034;SDS011;33812;46.480;6.834;2022-09-21T05:09:47;3.53;;;0.95;;
48034;SDS011;33812;46.480;6.834;2022-09-21T05:14:04;6.30;;;1.58;;
48034;SDS011;33812;46.480;6.834;2022-09-21T05:18:07;5.97;;;0.90;;
48034;SDS011;33812;46.480;6.834;2022-09-21T05:22:09;16.30;;;1.70;;
48034;SDS011;33812;46.480;6.834;2022-09-21T05:26:10;6.90;;;1.13;;
48034;SDS011;33812;46.480;6.834;2022-09-21T05:30:12;10.50;;;1.40;;
48034;SDS011;33812;46.480;6.834;2022-09-21T05:34:20;3.90;;;0.90;;
48034;SDS011;33812;46.480;6.834;2022-09-21T05:38:30;27.88;;;1.20;;
48034;SDS011;33812;46.480;6.834;2022-09-21T05:42:32;9.40;;;0.90;;
48034;SDS011;33812;46.480;6.834;2022-09-21T05:46:36;2.75;;;0.70;;
48034;SDS011;33812;46.480;6.834;2022-09-21T05:50:43;1.90;;;1.05;;
48034;SDS011;33812;46.480;6.834;2022-09-21T05:55:01;6.53;;;0.90;;
48034;SDS011;33812;46.480;6.834;2022-09-21T05:59:15;3.95;;;1.20;;
48034;SDS011;33812;46.480;6.834;2022-09-21T06:03:44;4.53;;;0.80;;
48034;SDS011;33812;46.480;6.834;2022-09-21T06:07:49;5.47;;;0.85;;
48034;SDS011;33812;46.480;6.834;2022-09-21T06:11:51;7.40;;;1.55;;
48034;SDS011;33812;46.480;6.834;2022-09-21T06:15:53;6.90;;;0.98;;
48034;SDS011;33812;46.480;6.834;2022-09-21T06:19:54;2.47;;;0.82;;
48034;SDS011;33812;46.480;6.834;2022-09-21T06:23:58;3.15;;;0.85;;
48034;SDS011;33812;46.480;6.834;2022-09-21T06:28:03;3.85;;;1.45;;
48034;SDS011;33812;46.480;6.834;2022-09-21T06:32:05;2.05;;;0.70;;
48034;SDS011;33812;46.480;6.834;2022-09-21T06:36:07;2.83;;;1.00;;
48034;SDS011;33812;46.480;6.834;2022-09-21T06:40:10;5.35;;;0.57;;
48034;SDS011;33812;46.480;6.834;2022-09-21T06:44:11;4.07;;;1.00;;
48034;SDS011;33812;46.480;6.834;2022-09-21T06:48:13;3.42;;;0.88;;
48034;SDS011;33812;46.480;6.834;2022-09-21T06:52:15;4.55;;;0.90;;
48034;SDS011;33812;46.480;6.834;2022-09-21T06:56:18;2.28;;;0.75;;
48034;SDS011;33812;46.480;6.834;2022-09-21T07:00:20;2.53;;;1.00;;
48034;SDS011;33812;46.480;6.834;2022-09-21T07:04:22;12.20;;;1.00;;
48034;SDS011;33812;46.480;6.834;2022-09-21T07:08:24;3.50;;;1.00;;
48034;SDS011;33812;46.480;6.834;2022-09-21T07:12:28;6.35;;;0.98;;
48034;SDS011;33812;46.480;6.834;2022-09-21T07:16:34;2.58;;;0.68;;
48034;SDS011;33812;46.480;6.834;2022-09-21T07:20:36;8.65;;;1.08;;
48034;SDS011;33812;46.480;6.834;2022-09-21T07:24:38;2.80;;;0.90;;
48034;SDS011;33812;46.480;6.834;2022-09-21T07:28:41;1.65;;;0.65;;
48034;SDS011;33812;46.480;6.834;2022-09-21T07:32:43;5.00;;;1.00;;
48034;SDS011;33812;46.480;6.834;2022-09-21T07:36:44;2.75;;;0.80;;
48034;SDS011;33812;46.480;6.834;2022-09-21T07:40:46;2.28;;;0.80;;
48034;SDS011;33812;46.480;6.834;2022-09-21T07:44:49;4.28;;;0.95;;
48034;SDS011;33812;46.480;6.834;2022-09-21T07:48:52;3.35;;;1.15;;
48034;SDS011;33812;46.480;6.834;2022-09-21T07:52:53;2.03;;;0.98;;
48034;SDS011;33812;46.480;6.834;2022-09-21T07:56:55;4.25;;;0.90;;
48034;SDS011;33812;46.480;6.834;2022-09-21T08:01:16;2.55;;;0.98;;
48034;SDS011;33812;46.480;6.834;2022-09-21T08:05:17;2.75;;;1.08;;
48034;SDS011;33812;46.480;6.834;2022-09-21T08:09:19;2.60;;;1.30;;
48034;SDS011;33812;46.480;6.834;2022-09-21T08:13:21;2.00;;;0.70;;
48034;SDS011;33812;46.480;6.834;2022-09-21T08:17:24;4.55;;;1.20;;
48034;SDS011;33812;46.480;6.834;2022-09-21T08:21:25;3.17;;;1.00;;
48034;SDS011;33812;46.480;6.834;2022-09-21T08:25:27;2.03;;;1.15;;
48034;SDS011;33812;46.480;6.834;2022-09-21T08:29:29;2.20;;;1.00;;
48034;SDS011;33812;46.480;6.834;2022-09-21T08:33:32;0.88;;;0.75;;
48034;SDS011;33812;46.480;6.834;2022-09-21T08:37:34;2.55;;;0.95;;
48034;SDS011;33812;46.480;6.834;2022-09-21T08:41:46;2.78;;;1.08;;
48034;SDS011;33812;46.480;6.834;2022-09-21T08:46:02;3.47;;;1.05;;
48034;SDS011;33812;46.480;6.834;2022-09-21T08:50:11;2.58;;;0.80;;
48034;SDS011;33812;46.480;6.834;2022-09-21T08:54:29;2.67;;;0.85;;
48034;SDS011;33812;46.480;6.834;2022-09-21T08:58:38;2.45;;;0.77;;
48034;SDS011;33812;46.480;6.834;2022-09-21T09:02:44;1.77;;;0.90;;
48034;SDS011;33812;46.480;6.834;2022-09-21T09:07:16;2.03;;;0.82;;
48034;SDS011;33812;46.480;6.834;2022-09-21T09:11:33;1.35;;;0.60;;
48034;SDS011;33812;46.480;6.834;2022-09-21T09:15:47;5.13;;;1.00;;
48034;SDS011;33812;46.480;6.834;2022-09-21T09:19:58;1.10;;;0.80;;
48034;SDS011;33812;46.480;6.834;2022-09-21T09:24:05;1.48;;;0.80;;
48034;SDS011;33812;46.480;6.834;2022-09-21T09:28:16;2.13;;;0.82;;
48034;SDS011;33812;46.480;6.834;2022-09-21T09:32:26;3.22;;;1.02;;
48034;SDS011;33812;46.480;6.834;2022-09-21T09:36:32;1.30;;;0.90;;
48034;SDS011;33812;46.480;6.834;2022-09-21T09:40:42;2.15;;;0.85;;
48034;SDS011;33812;46.480;6.834;2022-09-21T09:44:57;3.28;;;0.90;;
48034;SDS011;33812;46.480;6.834;2022-09-21T09:49:23;1.92;;;1.00;;
48034;SDS011;33812;46.480;6.834;2022-09-21T09:53:34;1.52;;;0.90;;
48034;SDS011;33812;46.480;6.834;2022-09-21T09:57:37;2.53;;;1.00;;
48034;SDS011;33812;46.480;6.834;2022-09-21T10:01:39;2.95;;;0.90;;
48034;SDS011;33812;46.480;6.834;2022-09-21T10:05:42;1.05;;;0.80;;
48034;SDS011;33812;46.480;6.834;2022-09-21T10:09:44;2.20;;;0.90;;
48034;SDS011;33812;46.480;6.834;2022-09-21T10:13:47;3.38;;;1.05;;
48034;SDS011;33812;46.480;6.834;2022-09-21T10:17:56;2.13;;;1.10;;
48034;SDS011;33812;46.480;6.834;2022-09-21T10:22:02;1.45;;;0.95;;
48034;SDS011;33812;46.480;6.834;2022-09-21T10:26:07;1.98;;;1.02;;
48034;SDS011;33812;46.480;6.834;2022-09-21T10:30:20;2.63;;;1.00;;
48034;SDS011;33812;46.480;6.834;2022-09-21T10:34:33;1.95;;;0.90;;
48034;SDS011;33812;46.480;6.834;2022-09-21T10:38:35;2.55;;;1.08;;
48034;SDS011;33812;46.480;6.834;2022-09-21T10:42:40;1.10;;;0.80;;
48034;SDS011;33812;46.480;6.834;2022-09-21T10:46:44;2.45;;;1.27;;
48034;SDS011;33812;46.480;6.834;2022-09-21T10:50:47;1.00;;;0.90;;
48034;SDS011;33812;46.480;6.834;2022-09-21T10:54:51;2.55;;;0.90;;
48034;SDS011;33812;46.480;6.834;2022-09-21T10:59:08;2.85;;;1.20;;
48034;SDS011;33812;46.480;6.834;2022-09-21T11:03:36;1.58;;;0.80;;
48034;SDS011;33812;46.480;6.834;2022-09-21T11:07:48;2.05;;;0.95;;
48034;SDS011;33812;46.480;6.834;2022-09-21T11:11:53;4.05;;;0.95;;
48034;SDS011;33812;46.480;6.834;2022-09-21T11:16:00;4.63;;;1.00;;
48034;SDS011;33812;46.480;6.834;2022-09-21T11:20:16;2.50;;;0.90;;
48034;SDS011;33812;46.480;6.834;2022-09-21T11:24:25;7.60;;;1.40;;
48034;SDS011;33812;46.480;6.834;2022-09-21T11:28:37;1.42;;;0.98;;
48034;SDS011;33812;46.480;6.834;2022-09-21T11:32:50;1.15;;;0.80;;
48034;SDS011;33812;46.480;6.834;2022-09-21T11:37:06;5.18;;;1.60;;
48034;SDS011;33812;46.480;6.834;2022-09-21T11:41:30;3.78;;;1.10;;
48034;SDS011;33812;46.480;6.834;2022-09-21T11:45:46;2.50;;;1.02;;
48034;SDS011;33812;46.480;6.834;2022-09-21T11:50:12;3.55;;;1.10;;
48034;SDS011;33812;46.480;6.834;2022-09-21T11:54:38;2.55;;;0.88;;
48034;SDS011;33812;46.480;6.834;2022-09-21T11:58:51;1.55;;;0.95;;
48034;SDS011;33812;46.480;6.834;2022-09-21T12:03:12;3.83;;;1.13;;
48034;SDS011;33812;46.480;6.834;2022-09-21T12:07:38;1.77;;;0.70;;
48034;SDS011;33812;46.480;6.834;2022-09-21T12:11:53;1.60;;;0.90;;
48034;SDS011;33812;46.480;6.834;2022-09-21T12:16:07;1.63;;;0.80;;
48034;SDS011;33812;46.480;6.834;2022-09-21T12:20:15;4.35;;;1.80;;
48034;SDS011;33812;46.480;6.834;2022-09-21T12:24:26;3.60;;;1.20;;
48034;SDS011;33812;46.480;6.834;2022-09-21T12:28:35;2.65;;;1.17;;
48034;SDS011;33812;46.480;6.834;2022-09-21T12:32:43;3.40;;;1.00;;
48034;SDS011;33812;46.480;6.834;2022-09-21T12:36:57;1.27;;;0.90;;
48034;SDS011;33812;46.480;6.834;2022-09-21T12:41:05;2.00;;;1.08;;
48034;SDS011;33812;46.480;6.834;2022-09-21T12:45:23;1.90;;;0.90;;
48034;SDS011;33812;46.480;6.834;2022-09-21T12:49:29;1.65;;;0.80;;
48034;SDS011;33812;46.480;6.834;2022-09-21T12:53:33;1.73;;;0.82;;
48034;SDS011;33812;46.480;6.834;2022-09-21T13:01:52;1.35;;;0.80;;
48034;SDS011;33812;46.480;6.834;2022-09-21T13:06:14;1.35;;;0.80;;
48034;SDS011;33812;46.480;6.834;2022-09-21T13:10:38;1.73;;;0.68;;
48034;SDS011;33812;46.480;6.834;2022-09-21T13:14:43;1.27;;;0.70;;
48034;SDS011;33812;46.480;6.834;2022-09-21T13:18:53;2.40;;;1.10;;
48034;SDS011;33812;46.480;6.834;2022-09-21T13:22:57;1.73;;;0.80;;
48034;SDS011;33812;46.480;6.834;2022-09-21T13:27:00;2.42;;;1.00;;
48034;SDS011;33812;46.480;6.834;2022-09-21T13:35:58;2.15;;;0.70;;
48034;SDS011;33812;46.480;6.834;2022-09-21T13:44:36;2.28;;;1.10;;
48034;SDS011;33812;46.480;6.834;2022-09-21T13:48:41;1.42;;;0.70;;
48034;SDS011;33812;46.480;6.834;2022-09-21T13:52:44;0.77;;;0.70;;
48034;SDS011;33812;46.480;6.834;2022-09-21T13:56:56;2.20;;;0.90;;
48034;SDS011;33812;46.480;6.834;2022-09-21T14:01:01;0.95;;;0.80;;
48034;SDS011;33812;46.480;6.834;2022-09-21T14:05:08;2.00;;;0.77;;
48034;SDS011;33812;46.480;6.834;2022-09-21T14:09:27;4.80;;;0.93;;
48034;SDS011;33812;46.480;6.834;2022-09-21T14:13:32;0.95;;;0.85;;
48034;SDS011;33812;46.480;6.834;2022-09-21T14:17:36;2.03;;;0.98;;
48034;SDS011;33812;46.480;6.834;2022-09-21T14:21:39;1.20;;;0.77;;
48034;SDS011;33812;46.480;6.834;2022-09-21T14:26:30;2.00;;;0.88;;
48034;SDS011;33812;46.480;6.834;2022-09-21T14:30:33;1.95;;;0.95;;
48034;SDS011;33812;46.480;6.834;2022-09-21T14:34:38;1.25;;;0.70;;
48034;SDS011;33812;46.480;6.834;2022-09-21T14:38:43;2.25;;;1.00;;
48034;SDS011;33812;46.480;6.834;2022-09-21T14:42:51;1.63;;;0.70;;
48034;SDS011;33812;46.480;6.834;2022-09-21T14:46:59;1.75;;;1.08;;
48034;SDS011;33812;46.480;6.834;2022-09-21T14:51:11;1.83;;;0.95;;
48034;SDS011;33812;46.480;6.834;2022-09-21T14:55:21;1.63;;;0.80;;
48034;SDS011;33812;46.480;6.834;2022-09-21T14:59:39;2.22;;;0.98;;
48034;SDS011;33812;46.480;6.834;2022-09-21T15:04:00;3.38;;;0.95;;
48034;SDS011;33812;46.480;6.834;2022-09-21T15:08:26;3.38;;;1.05;;
48034;SDS011;33812;46.480;6.834;2022-09-21T15:13:08;2.72;;;1.50;;
48034;SDS011;33812;46.480;6.834;2022-09-21T15:17:25;7.40;;;1.30;;
48034;SDS011;33812;46.480;6.834;2022-09-21T15:21:29;7.15;;;2.45;;
48034;SDS011;33812;46.480;6.834;2022-09-21T15:25:32;4.40;;;1.45;;
48034;SDS011;33812;46.480;6.834;2022-09-21T15:29:34;6.70;;;1.30;;
48034;SDS011;33812;46.480;6.834;2022-09-21T15:33:38;6.47;;;1.40;;
48034;SDS011;33812;46.480;6.834;2022-09-21T15:37:43;4.72;;;1.23;;
48034;SDS011;33812;46.480;6.834;2022-09-21T15:41:46;1.95;;;1.00;;
48034;SDS011;33812;46.480;6.834;2022-09-21T15:45:50;5.18;;;1.92;;
48034;SDS011;33812;46.480;6.834;2022-09-21T15:49:56;4.25;;;1.10;;
48034;SDS011;33812;46.480;6.834;2022-09-21T15:53:58;8.80;;;1.13;;
48034;SDS011;33812;46.480;6.834;2022-09-21T15:58:11;4.97;;;1.25;;
48034;SDS011;33812;46.480;6.834;2022-09-21T16:02:21;6.15;;;1.33;;
48034;SDS011;33812;46.480;6.834;2022-09-21T16:06:27;4.15;;;1.55;;
48034;SDS011;33812;46.480;6.834;2022-09-21T16:10:37;5.72;;;1.33;;
48034;SDS011;33812;46.480;6.834;2022-09-21T16:14:45;18.50;;;1.73;;
48034;SDS011;33812;46.480;6.834;2022-09-21T16:18:56;5.95;;;1.85;;
48034;SDS011;33812;46.480;6.834;2022-09-21T16:23:04;13.80;;;1.48;;
48034;SDS011;33812;46.480;6.834;2022-09-21T16:27:14;15.10;;;2.20;;
48034;SDS011;33812;46.480;6.834;2022-09-21T16:31:21;13.20;;;1.50;;
48034;SDS011;33812;46.480;6.834;2022-09-21T16:35:26;8.35;;;1.15;;
48034;SDS011;33812;46.480;6.834;2022-09-21T16:39:31;11.43;;;2.10;;
48034;SDS011;33812;46.480;6.834;2022-09-21T16:43:33;9.68;;;1.55;;
48034;SDS011;33812;46.480;6.834;2022-09-21T16:47:42;3.38;;;1.30;;
48034;SDS011;33812;46.480;6.834;2022-09-21T16:51:46;2.92;;;1.65;;
48034;SDS011;33812;46.480;6.834;2022-09-21T16:55:50;3.50;;;1.20;;
48034;SDS011;33812;46.480;6.834;2022-09-21T16:59:53;4.43;;;1.27;;
48034;SDS011;33812;46.480;6.834;2022-09-21T17:03:54;5.85;;;1.20;;
48034;SDS011;33812;46.480;6.834;2022-09-21T17:07:56;3.35;;;1.27;;
48034;SDS011;33812;46.480;6.834;2022-09-21T17:12:01;2.47;;;1.42;;
48034;SDS011;33812;46.480;6.834;2022-09-21T17:16:05;4.15;;;1.00;;
48034;SDS011;33812;46.480;6.834;2022-09-21T17:20:13;5.32;;;1.10;;
48034;SDS011;33812;46.480;6.834;2022-09-21T17:24:18;4.13;;;1.13;;
48034;SDS011;33812;46.480;6.834;2022-09-21T17:28:22;10.88;;;1.75;;
48034;SDS011;33812;46.480;6.834;2022-09-21T17:32:26;4.32;;;1.48;;
48034;SDS011;33812;46.480;6.834;2022-09-21T17:36:28;6.65;;;1.00;;
48034;SDS011;33812;46.480;6.834;2022-09-21T17:40:30;4.90;;;1.38;;
48034;SDS011;33812;46.480;6.834;2022-09-21T17:44:38;7.80;;;1.52;;
48034;SDS011;33812;46.480;6.834;2022-09-21T17:48:48;3.78;;;1.17;;
48034;SDS011;33812;46.480;6.834;2022-09-21T17:52:50;10.60;;;1.40;;
48034;SDS011;33812;46.480;6.834;2022-09-21T17:57:14;7.95;;;1.23;;
48034;SDS011;33812;46.480;6.834;2022-09-21T18:01:42;4.90;;;1.23;;
48034;SDS011;33812;46.480;6.834;2022-09-21T18:05:44;3.03;;;1.15;;
48034;SDS011;33812;46.480;6.834;2022-09-21T18:09:46;6.32;;;1.65;;
48034;SDS011;33812;46.480;6.834;2022-09-21T18:13:51;2.97;;;1.67;;
48034;SDS011;33812;46.480;6.834;2022-09-21T18:18:06;4.63;;;1.20;;
48034;SDS011;33812;46.480;6.834;2022-09-21T18:22:14;2.78;;;1.30;;
48034;SDS011;33812;46.480;6.834;2022-09-21T18:26:23;5.00;;;1.20;;
48034;SDS011;33812;46.480;6.834;2022-09-21T18:30:26;2.97;;;0.93;;
48034;SDS011;33812;46.480;6.834;2022-09-21T18:34:37;7.82;;;1.00;;
48034;SDS011;33812;46.480;6.834;2022-09-21T18:38:58;3.38;;;1.27;;
48034;SDS011;33812;46.480;6.834;2022-09-21T18:43:15;5.75;;;1.50;;
48034;SDS011;33812;46.480;6.834;2022-09-21T18:47:25;8.52;;;2.42;;
48034;SDS011;33812;46.480;6.834;2022-09-21T18:51:35;6.03;;;1.50;;
48034;SDS011;33812;46.480;6.834;2022-09-21T18:55:46;11.25;;;1.98;;
48034;SDS011;33812;46.480;6.834;2022-09-21T18:59:48;7.85;;;1.80;;
48034;SDS011;33812;46.480;6.834;2022-09-21T19:03:50;15.65;;;2.10;;
48034;SDS011;33812;46.480;6.834;2022-09-21T19:07:56;15.10;;;2.63;;
48034;SDS011;33812;46.480;6.834;2022-09-21T19:12:13;18.45;;;2.10;;
48034;SDS011;33812;46.480;6.834;2022-09-21T19:16:23;34.33;;;2.80;;
48034;SDS011;33812;46.480;6.834;2022-09-21T19:20:35;20.10;;;2.30;;
48034;SDS011;33812;46.480;6.834;2022-09-21T19:24:51;15.88;;;2.95;;
48034;SDS011;33812;46.480;6.834;2022-09-21T19:29:11;10.75;;;2.58;;
48034;SDS011;33812;46.480;6.834;2022-09-21T19:33:26;17.65;;;2.95;;
48034;SDS011;33812;46.480;6.834;2022-09-21T19:37:31;11.20;;;1.88;;
48034;SDS011;33812;46.480;6.834;2022-09-21T19:41:36;17.10;;;2.65;;
48034;SDS011;33812;46.480;6.834;2022-09-21T19:45:51;27.60;;;3.53;;
48034;SDS011;33812;46.480;6.834;2022-09-21T19:50:09;13.07;;;2.05;;
48034;SDS011;33812;46.480;6.834;2022-09-21T19:54:16;14.93;;;1.60;;
48034;SDS011;33812;46.480;6.834;2022-09-21T19:58:39;14.60;;;2.78;;
48034;SDS011;33812;46.480;6.834;2022-09-21T20:03:00;5.88;;;1.58;;
48034;SDS011;33812;46.480;6.834;2022-09-21T20:07:08;5.90;;;1.42;;
48034;SDS011;33812;46.480;6.834;2022-09-21T20:11:19;7.97;;;1.50;;
48034;SDS011;33812;46.480;6.834;2022-09-21T20:15:28;3.05;;;1.27;;
48034;SDS011;33812;46.480;6.834;2022-09-21T20:19:36;7.82;;;1.50;;
48034;SDS011;33812;46.480;6.834;2022-09-21T20:23:45;7.32;;;1.50;;
48034;SDS011;33812;46.480;6.834;2022-09-21T20:27:48;7.68;;;1.75;;
48034;SDS011;33812;46.480;6.834;2022-09-21T20:31:53;5.93;;;1.40;;
48034;SDS011;33812;46.480;6.834;2022-09-21T20:35:55;5.63;;;1.45;;
48034;SDS011;33812;46.480;6.834;2022-09-21T20:39:57;7.20;;;2.22;;
48034;SDS011;33812;46.480;6.834;2022-09-21T20:43:58;9.55;;;1.88;;
48034;SDS011;33812;46.480;6.834;2022-09-21T20:48:02;3.25;;;1.70;;
48034;SDS011;33812;46.480;6.834;2022-09-21T20:52:13;5.43;;;1.17;;
48034;SDS011;33812;46.480;6.834;2022-09-21T20:56:16;5.85;;;1.15;;
48034;SDS011;33812;46.480;6.834;2022-09-21T21:00:18;4.80;;;1.27;;
48034;SDS011;33812;46.480;6.834;2022-09-21T21:04:21;8.10;;;1.23;;
48034;SDS011;33812;46.480;6.834;2022-09-21T21:08:23;2.67;;;1.08;;
48034;SDS011;33812;46.480;6.834;2022-09-21T21:12:24;4.22;;;1.45;;
48034;SDS011;33812;46.480;6.834;2022-09-21T21:16:26;3.75;;;1.15;;
48034;SDS011;33812;46.480;6.834;2022-09-21T21:20:29;6.05;;;1.10;;
48034;SDS011;33812;46.480;6.834;2022-09-21T21:24:31;2.67;;;1.73;;
48034;SDS011;33812;46.480;6.834;2022-09-21T21:28:43;3.92;;;1.73;;
48034;SDS011;33812;46.480;6.834;2022-09-21T21:32:44;1.70;;;0.77;;
48034;SDS011;33812;46.480;6.834;2022-09-21T21:36:52;4.05;;;1.25;;
48034;SDS011;33812;46.480;6.834;2022-09-21T21:40:54;3.28;;;1.08;;
48034;SDS011;33812;46.480;6.834;2022-09-21T21:44:56;3.67;;;1.17;;
48034;SDS011;33812;46.480;6.834;2022-09-21T21:48:57;4.43;;;1.25;;
48034;SDS011;33812;46.480;6.834;2022-09-21T21:53:00;2.30;;;0.95;;
48034;SDS011;33812;46.480;6.834;2022-09-21T21:57:02;2.85;;;1.08;;
48034;SDS011;33812;46.480;6.834;2022-09-21T22:01:08;5.75;;;1.38;;
48034;SDS011;33812;46.480;6.834;2022-09-21T22:05:10;2.40;;;1.20;;
48034;SDS011;33812;46.480;6.834;2022-09-21T22:09:13;2.72;;;1.40;;
48034;SDS011;33812;46.480;6.834;2022-09-21T22:13:17;1.85;;;0.95;;
48034;SDS011;33812;46.480;6.834;2022-09-21T22:17:19;2.53;;;1.17;;
48034;SDS011;33812;46.480;6.834;2022-09-21T22:21:21;3.00;;;1.02;;
48034;SDS011;33812;46.480;6.834;2022-09-21T22:25:26;3.63;;;1.15;;
48034;SDS011;33812;46.480;6.834;2022-09-21T22:29:28;4.05;;;1.30;;
48034;SDS011;33812;46.480;6.834;2022-09-21T22:33:30;1.58;;;1.10;;
48034;SDS011;33812;46.480;6.834;2022-09-21T22:37:33;1.77;;;1.25;;
48034;SDS011;33812;46.480;6.834;2022-09-21T22:41:37;4.63;;;1.30;;
48034;SDS011;33812;46.480;6.834;2022-09-21T22:45:40;4.32;;;0.98;;
48034;SDS011;33812;46.480;6.834;2022-09-21T22:49:42;1.40;;;0.85;;
48034;SDS011;33812;46.480;6.834;2022-09-21T22:53:44;2.22;;;1.00;;
48034;SDS011;33812;46.480;6.834;2022-09-21T22:57:48;3.22;;;1.25;;
48034;SDS011;33812;46.480;6.834;2022-09-21T23:01:50;2.33;;;1.25;;
48034;SDS011;33812;46.480;6.834;2022-09-21T23:05:54;1.52;;;0.80;;
48034;SDS011;33812;46.480;6.834;2022-09-21T23:09:56;2.45;;;0.93;;
48034;SDS011;33812;46.480;6.834;2022-09-21T23:14:00;2.92;;;1.02;;
48034;SDS011;33812;46.480;6.834;2022-09-21T23:18:02;1.50;;;1.10;;
48034;SDS011;33812;46.480;6.834;2022-09-21T23:22:04;4.85;;;0.90;;
48034;SDS011;33812;46.480;6.834;2022-09-21T23:26:06;3.33;;;1.20;;
48034;SDS011;33812;46.480;6.834;2022-09-21T23:30:11;2.08;;;1.05;;
48034;SDS011;33812;46.480;6.834;2022-09-21T23:34:13;2.53;;;1.02;;
48034;SDS011;33812;46.480;6.834;2022-09-21T23:38:16;2.90;;;1.27;;
48034;SDS011;33812;46.480;6.834;2022-09-21T23:42:17;2.00;;;1.10;;
48034;SDS011;33812;46.480;6.834;2022-09-21T23:46:21;1.88;;;1.27;;
48034;SDS011;33812;46.480;6.834;2022-09-21T23:54:25;3.13;;;1.10;;
48034;SDS011;33812;46.480;6.834;2022-09-21T23:58:27;2.05;;;1.08;;
